Terminal Aerodrome Forecast
Issued by NWS

Home | Current Version | Previous Version | Text Only | Print | Product List | Glossary On
Versions: 1 2 3 4 5 6 7 8 9 10 11 12
817
FTUS44 KLZK 070520
TAFPBF
TAF
KPBF 070520Z 0706/0806 VRB03KT P6SM SCT250
     FM071600 24008G15KT P6SM SCT250=

USA.gov is the U.S. government's official web portal to all federal, state and local government web resources and services.